Nanuet, NY

5:17 AM EDT on April 25, 2015 (GMT -0400)
KC2EHA | | Change Station
CLOSE
Current Station
Personal Weather Station
Location: Nanuet, NY
Elevation: 308 ft
Nearby Weather Stations
Active Advisory: Freeze Warning

Elev 308 ft 41.10 °N, 74.00 °W | Updated 375 days ago

Clear
Clear
33 °F
Feels Like 28 °F
N
7
Wind Variable Wind from WNW
Gusts 13 mph

Today
High -- | Low -- °F
--% Chance of Precip.
Yesterday
High -- | Low -- °F
Precip. -- in
6:02 AM 7:46 PM
Waxing Crescent, 44% visible
Pressure 29.89 in
Visibility 10.0 miles
Clouds Clear
Windchill 28 °F
Dew Point 22 °F
Humidity 62%
Rainfall in
Snow Depth Not available.
UV 0 out of 12
Pollen 11.20 out of 12
Air Quality Not available.
Flu Activity Widespread
METAR KHPN 250856Z 26004KT 10SM CLR 01/M06 A2987 RMK AO2 SLP121 T00111061 53001

More Conditions Fewer Conditions

Pressure 29.89 in
Visibility 10.0 miles
Clouds Clear
Windchill 28 °F
Dew Point 22 °F
Humidity 62%
Rainfall in
Snow Depth Not available.
UV 0 out of 12
Pollen 11.20 out of 12
Air Quality Not available.
Flu Activity Widespread
METAR KHPN 250856Z 26004KT 10SM CLR 01/M06 A2987 RMK AO2 SLP121 T00111061 53001

More Conditions Fewer Conditions

10-Day Weather Forecast

Almanac

Astronomy

Apr. 25, 2015 Rise Set
Actual Time
Civil Twilight
Nautical Twilight
Astronomical Twilight
Moon
Length of Visible Light
Length of Day
Tomorrow will be .
, % of the Moon is Illuminated

Today's Extremes

State Highs State Lows

Community

WunderPhotos

Upload Photos

1,816,631 photos uploaded!

WunderBlogs® & News

Nearby

Air Quality

  Air Quality AQ Index Pollutant
Not available.

Snow Depth

Station Depth Elevation

Earthquake Activity

City Distance Mag. Time & Date
Minimum magnitude displayed is 2.5.

Coastal Water Temperatures

Place Temperature

Stations

Nearby Weather Stations

Station Location Temp. Windchill Dew Point Humidity Wind Precip. Elev Updated Type
                   
Freeze Warning
Statement as of 3:32 AM EDT on April 25, 2015

... Freeze warning remains in effect until 9 am EDT this morning...

* locations... interior southern Connecticut... the lower Hudson
Valley... and interior portions of northeastern New Jersey.

* Hazards... sub-freezing temperatures.

* Temperatures... mid 20s to around 30.

* Timing... this morning.

* Impacts... the sub-freezing temperatures will kill crops and
other sensitive vegetation.

Precautionary/preparedness actions...

A freeze warning means below freezing temperatures are imminent
or highly likely. These conditions will kill crops and other
sensitive vegetation.



Jmc